Time;durP1;ratioP1;P1;durP2;ratioP2;P2;SDS_P1;SDS_P2;PMS_P1;PMS_P2;Temp;Humidity;BMP_temperature;BMP_pressure;BME280_temperature;BME280_humidity;BME280_pressure;Samples;Min_cycle;Max_cycle;Signal;HPM_P1;HPM_P2
2022/05/10 00:01:41;;;;;;;6.13;4.97;;;14.00;99.90;;;;;;5086037;28;20514;-83
2022/05/10 00:04:10;;;;;;;6.90;4.40;;;13.90;99.90;;;;;;5085580;28;20495;-83
2022/05/10 00:06:39;;;;;;;7.00;3.73;;;13.80;99.90;;;;;;5081413;28;20479;-82
2022/05/10 00:09:07;;;;;;;11.00;4.57;;;13.70;99.90;;;;;;5080822;28;20834;-81
2022/05/10 00:11:33;;;;;;;5.53;5.00;;;13.60;99.90;;;;;;5079680;28;20452;-81
2022/05/10 00:14:00;;;;;;;11.43;5.57;;;13.40;99.90;;;;;;5079647;28;20498;-84
2022/05/10 00:16:28;;;;;;;9.00;5.23;;;13.60;99.90;;;;;;5081165;28;20445;-83
2022/05/10 00:18:55;;;;;;;6.37;5.43;;;;;;;;;;5086710;28;20467;-82
2022/05/10 00:21:25;;;;;;;7.57;5.17;;;13.70;99.90;;;;;;5085968;28;20447;-82
2022/05/10 00:23:52;;;;;;;7.87;4.50;;;13.80;99.90;;;;;;5083889;28;20467;-82
2022/05/10 00:26:19;;;;;;;5.77;5.00;;;;;;;;;;5084341;28;20477;-81
2022/05/10 00:28:46;;;;;;;7.93;5.33;;;13.70;99.90;;;;;;5080979;28;20449;-82
2022/05/10 00:31:13;;;;;;;8.17;4.87;;;13.50;99.90;;;;;;5080456;28;20497;-83
2022/05/10 00:33:41;;;;;;;9.67;5.37;;;13.70;99.90;;;;;;5084540;28;20791;-82
2022/05/10 00:36:11;;;;;;;7.03;5.20;;;13.50;99.90;;;;;;5090007;28;20459;-80
2022/05/10 00:38:40;;;;;;;9.00;4.63;;;13.70;99.90;;;;;;5080020;28;20436;-81
2022/05/10 00:41:15;;;;;;;7.60;4.70;;;13.60;99.90;;;;;;5080550;28;20523;-82
2022/05/10 00:43:47;;;;;;;8.13;5.70;;;13.70;99.90;;;;;;5079236;28;20411;-81
2022/05/10 00:46:17;;;;;;;9.83;5.10;;;13.50;99.90;;;;;;5085523;28;20509;-82
2022/05/10 00:48:50;;;;;;;8.10;5.57;;;13.30;99.90;;;;;;5088605;28;20428;-80
2022/05/10 00:51:22;;;;;;;9.10;5.00;;;13.70;99.90;;;;;;5081095;28;20444;-84
2022/05/10 00:53:56;;;;;;;7.77;4.87;;;13.70;99.90;;;;;;5085620;28;20416;-80
2022/05/10 00:56:32;;;;;;;5.07;4.60;;;13.60;99.90;;;;;;5092853;28;20424;-82
2022/05/10 00:59:04;;;;;;;8.03;5.27;;;13.50;99.90;;;;;;5094490;28;20403;-83
2022/05/10 01:01:33;;;;;;;5.43;4.43;;;13.30;99.90;;;;;;5093785;28;20432;-82
2022/05/10 01:04:09;;;;;;;7.00;4.60;;;12.90;99.90;;;;;;5091799;28;20467;-81
2022/05/10 01:06:44;;;;;;;9.57;4.87;;;13.20;99.90;;;;;;5094878;28;20467;-80
2022/05/10 01:09:16;;;;;;;7.83;5.40;;;12.80;99.90;;;;;;5095267;28;20448;-80
2022/05/10 01:11:48;;;;;;;4.57;4.17;;;13.60;99.90;;;;;;5093624;28;20424;-81
2022/05/10 01:14:19;;;;;;;8.67;5.00;;;13.60;99.90;;;;;;5090099;28;20452;-83
2022/05/10 01:16:46;;;;;;;7.40;5.13;;;13.10;99.90;;;;;;5083841;28;20460;-82
2022/05/10 01:19:15;;;;;;;7.07;5.03;;;13.50;99.90;;;;;;5079770;28;20855;-81
2022/05/10 01:21:58;;;;;;;8.20;5.17;;;13.50;99.90;;;;;;5085474;28;20452;-83
2022/05/10 01:24:41;;;;;;;8.30;5.07;;;12.80;99.90;;;;;;5087589;28;20462;-82
2022/05/10 01:27:20;;;;;;;6.13;5.50;;;13.20;99.90;;;;;;5084898;28;20827;-82
2022/05/10 01:29:53;;;;;;;7.80;5.20;;;13.20;99.90;;;;;;5092531;28;20438;-83
2022/05/10 01:35:13;;;;;;;13.13;4.50;;;12.90;99.90;;;;;;5104113;22;20523;-85
2022/05/10 01:37:46;;;;;;;7.30;5.30;;;13.10;99.90;;;;;;5097510;28;20424;-84
2022/05/10 01:40:21;;;;;;;9.30;5.40;;;13.00;99.90;;;;;;5098094;28;20428;-84
2022/05/10 01:42:54;;;;;;;6.60;5.17;;;12.90;99.90;;;;;;5095229;28;20393;-84
2022/05/10 01:45:27;;;;;;;6.77;4.90;;;12.80;99.90;;;;;;5093368;28;20963;-85
2022/05/10 01:47:58;;;;;;;5.33;4.83;;;13.10;99.90;;;;;;5091966;28;20480;-84
2022/05/10 01:50:30;;;;;;;8.17;5.97;;;12.60;99.90;;;;;;5096981;28;20440;-84
2022/05/10 01:53:06;;;;;;;6.87;5.50;;;13.00;99.90;;;;;;5097836;28;20405;-84
2022/05/10 01:55:35;;;;;;;6.90;5.73;;;12.80;99.90;;;;;;5096762;28;20463;-84
2022/05/10 01:58:06;;;;;;;5.40;4.90;;;12.80;99.90;;;;;;5097719;28;20460;-84
2022/05/10 02:00:37;;;;;;;8.63;6.37;;;12.70;99.90;;;;;;5095286;28;20953;-84
2022/05/10 02:03:12;;;;;;;12.53;5.30;;;12.70;99.90;;;;;;5094634;28;20890;-84
2022/05/10 02:05:46;;;;;;;7.70;5.40;;;12.70;99.90;;;;;;5083495;28;20499;-84
2022/05/10 02:08:18;;;;;;;6.30;4.70;;;12.70;99.90;;;;;;5082553;28;20423;-84
2022/05/10 02:10:48;;;;;;;5.77;5.00;;;12.30;99.90;;;;;;5098114;28;20456;-84
2022/05/10 02:13:20;;;;;;;5.77;5.23;;;12.50;99.90;;;;;;5101057;28;20878;-84
2022/05/10 02:15:54;;;;;;;7.73;5.20;;;12.60;99.90;;;;;;5100112;28;20424;-84
2022/05/10 02:18:28;;;;;;;10.17;5.10;;;12.60;99.90;;;;;;5096716;28;20739;-84
2022/05/10 02:21:00;;;;;;;7.17;5.40;;;12.80;99.90;;;;;;5086765;28;20449;-84
2022/05/10 02:23:32;;;;;;;12.73;5.53;;;12.90;99.90;;;;;;5085464;28;20401;-84
2022/05/10 02:26:03;;;;;;;8.43;6.20;;;12.50;99.90;;;;;;5084084;28;21025;-84
2022/05/10 02:28:37;;;;;;;7.03;5.57;;;12.60;99.90;;;;;;5083247;28;20436;-84
2022/05/10 02:31:09;;;;;;;5.80;5.23;;;12.50;99.90;;;;;;5083332;28;20435;-84
2022/05/10 02:33:35;;;;;;;7.30;6.03;;;12.20;99.90;;;;;;5083823;28;20432;-85
2022/05/10 02:36:02;;;;;;;5.40;4.67;;;12.80;99.90;;;;;;5084148;28;20457;-84
2022/05/10 02:38:31;;;;;;;9.83;6.90;;;12.20;99.90;;;;;;5084014;28;20523;-84
2022/05/10 02:41:00;;;;;;;10.97;5.27;;;12.10;99.90;;;;;;5086452;28;20927;-85
2022/05/10 02:43:29;;;;;;;6.70;6.00;;;12.20;99.90;;;;;;5086100;28;20436;-84
2022/05/10 02:45:56;;;;;;;6.30;5.47;;;12.20;99.90;;;;;;5084771;28;20499;-84
2022/05/10 02:48:27;;;;;;;6.37;4.90;;;11.80;99.90;;;;;;5085378;28;20531;-84
2022/05/10 02:50:55;;;;;;;8.80;5.77;;;;;;;;;;5090119;28;20504;-84
2022/05/10 02:53:22;;;;;;;10.57;6.27;;;;;;;;;;5084400;28;20423;-85
2022/05/10 02:55:53;;;;;;;6.47;5.87;;;12.10;99.90;;;;;;5083766;28;20468;-85
2022/05/10 02:58:27;;;;;;;8.73;5.80;;;12.00;99.90;;;;;;5084017;28;20832;-85
2022/05/10 03:01:01;;;;;;;7.00;5.40;;;11.70;99.90;;;;;;5082859;28;20462;-85
2022/05/10 03:03:31;;;;;;;7.63;6.17;;;11.90;99.90;;;;;;5084309;28;20282;-84
2022/05/10 03:05:57;;;;;;;6.37;5.77;;;11.80;99.90;;;;;;5101560;28;20480;-85
2022/05/10 03:08:24;;;;;;;14.30;6.80;;;;;;;;;;5101550;28;20442;-85
2022/05/10 03:10:51;;;;;;;11.33;6.13;;;11.80;99.90;;;;;;5101429;28;20453;-86
2022/05/10 03:13:19;;;;;;;7.17;5.33;;;;;;;;;;5101469;28;20504;-85
2022/05/10 03:15:46;;;;;;;9.37;6.97;;;11.90;99.90;;;;;;5101495;28;20454;-85
2022/05/10 03:18:13;;;;;;;8.47;5.03;;;11.80;99.90;;;;;;5098847;28;20445;-84
2022/05/10 03:20:41;;;;;;;11.00;5.80;;;11.90;99.90;;;;;;5099564;28;20433;-85
2022/05/10 03:23:07;;;;;;;14.90;5.60;;;12.00;99.90;;;;;;5101143;28;20404;-85
2022/05/10 03:25:35;;;;;;;8.27;6.57;;;11.80;99.90;;;;;;5101314;28;20449;-85
2022/05/10 03:28:02;;;;;;;6.17;5.63;;;11.70;99.90;;;;;;5101193;28;20470;-85
2022/05/10 03:30:30;;;;;;;7.70;6.37;;;11.60;99.90;;;;;;5098307;28;20445;-84
2022/05/10 03:32:57;;;;;;;8.00;5.50;;;11.70;99.90;;;;;;5089951;28;20486;-84
2022/05/10 03:35:24;;;;;;;11.07;6.27;;;11.70;99.90;;;;;;5086790;28;20464;-84
2022/05/10 03:37:52;;;;;;;7.17;5.73;;;11.70;99.90;;;;;;5088643;28;20451;-84
2022/05/10 03:40:18;;;;;;;6.90;6.20;;;11.60;99.90;;;;;;5092230;28;20445;-84
2022/05/10 03:42:46;;;;;;;6.73;6.00;;;11.60;99.90;;;;;;5092610;28;20445;-84
2022/05/10 03:45:14;;;;;;;7.37;6.07;;;12.00;99.90;;;;;;5092264;28;20421;-84
2022/05/10 03:47:41;;;;;;;9.70;6.23;;;11.60;99.90;;;;;;5091205;28;20484;-84
2022/05/10 03:50:09;;;;;;;8.67;6.00;;;11.70;99.90;;;;;;5090424;28;20419;-84
2022/05/10 03:52:37;;;;;;;6.90;6.30;;;11.60;99.90;;;;;;5089769;28;20453;-84
2022/05/10 03:55:06;;;;;;;9.13;5.87;;;11.60;99.90;;;;;;5088694;28;20469;-84
2022/05/10 03:57:33;;;;;;;10.13;5.77;;;11.60;99.90;;;;;;5091219;28;20437;-84
2022/05/10 04:00:00;;;;;;;7.33;5.60;;;11.60;99.90;;;;;;5089129;28;20445;-84
2022/05/10 04:02:26;;;;;;;12.50;6.57;;;11.70;99.90;;;;;;5088118;28;20427;-84
2022/05/10 04:04:53;;;;;;;7.17;5.47;;;;;;;;;;5091499;28;20473;-84
2022/05/10 04:07:20;;;;;;;8.53;6.53;;;11.60;99.90;;;;;;5082499;28;20476;-84
2022/05/10 04:09:47;;;;;;;8.43;6.13;;;11.70;81.10;;;;;;5085644;28;20437;-84
2022/05/10 04:12:15;;;;;;;9.73;6.43;;;11.70;99.90;;;;;;5086479;28;20415;-84
2022/05/10 04:14:41;;;;;;;10.50;6.63;;;11.70;45.60;;;;;;5088206;28;20469;-84
2022/05/10 04:17:08;;;;;;;9.47;7.70;;;11.70;83.30;;;;;;5086484;28;20448;-84
2022/05/10 04:19:35;;;;;;;9.73;6.40;;;;;;;;;;5087752;28;20418;-85
2022/05/10 04:22:01;;;;;;;8.40;7.10;;;11.80;95.10;;;;;;5088517;28;20452;-84
2022/05/10 04:24:28;;;;;;;10.00;7.03;;;11.60;99.90;;;;;;5087774;28;20465;-84
2022/05/10 04:26:55;;;;;;;8.40;7.10;;;11.70;99.90;;;;;;5086351;28;20482;-84
2022/05/10 04:29:23;;;;;;;10.30;7.47;;;11.80;99.90;;;;;;5087095;28;20456;-84
2022/05/10 04:31:49;;;;;;;8.90;6.10;;;12.10;99.90;;;;;;5086816;28;20480;-84
2022/05/10 04:34:16;;;;;;;8.60;6.45;;;12.00;99.90;;;;;;5097209;28;20801;-83
2022/05/10 04:36:44;;;;;;;7.90;7.07;;;11.90;99.90;;;;;;5097386;28;20218;-84
2022/05/10 04:39:10;;;;;;;8.03;6.70;;;12.00;99.90;;;;;;5097001;28;20500;-84
2022/05/10 04:41:38;;;;;;;15.30;5.60;;;12.20;99.90;;;;;;5095696;28;20436;-84
2022/05/10 04:44:08;;;;;;;8.60;6.53;;;12.10;99.90;;;;;;5095054;28;20456;-84
2022/05/10 04:46:38;;;;;;;9.23;6.37;;;11.40;99.90;;;;;;5090569;28;20901;-84
2022/05/10 04:49:05;;;;;;;7.13;6.20;;;12.30;99.90;;;;;;5089330;28;20449;-84
2022/05/10 04:51:33;;;;;;;9.70;6.57;;;12.30;99.90;;;;;;5087396;28;20978;-84
2022/05/10 04:54:00;;;;;;;7.20;6.33;;;12.20;99.90;;;;;;5087818;28;20535;-84
2022/05/10 04:56:27;;;;;;;13.93;6.43;;;;;;;;;;5087314;28;20463;-84
2022/05/10 04:58:55;;;;;;;8.50;7.60;;;;;;;;;;5087949;28;20466;-84
2022/05/10 05:01:25;;;;;;;12.87;6.93;;;12.40;99.90;;;;;;5087670;28;20479;-83
2022/05/10 05:03:56;;;;;;;7.80;5.60;;;12.50;99.90;;;;;;5086258;28;20468;-83
2022/05/10 05:06:24;;;;;;;15.97;6.90;;;12.70;99.90;;;;;;5087156;28;20510;-84
2022/05/10 05:08:51;;;;;;;10.15;7.15;;;12.60;99.90;;;;;;5086122;28;20533;-84
2022/05/10 05:11:17;;;;;;;10.33;7.07;;;12.70;99.90;;;;;;5086304;28;20222;-84
2022/05/10 05:13:44;;;;;;;12.87;6.80;;;12.80;99.90;;;;;;5086610;28;20814;-84
2022/05/10 05:16:11;;;;;;;9.73;6.60;;;12.80;99.90;;;;;;5086427;28;20440;-85
2022/05/10 05:18:38;;;;;;;15.43;7.47;;;;;;;;;;5086734;28;20456;-85
2022/05/10 05:21:06;;;;;;;10.20;7.33;;;13.20;99.90;;;;;;5085822;28;20419;-85
2022/05/10 05:23:33;;;;;;;16.77;7.37;;;;;;;;;;5085500;28;20451;-85
2022/05/10 05:26:00;;;;;;;12.57;6.70;;;;;;;;;;5086352;28;20837;-84
2022/05/10 05:28:27;;;;;;;10.33;6.77;;;13.20;99.90;;;;;;5085609;28;21005;-85
2022/05/10 05:30:54;;;;;;;12.30;6.40;;;13.50;99.90;;;;;;5086401;28;20423;-85
2022/05/10 05:33:21;;;;;;;8.10;6.10;;;;;;;;;;5087615;28;20442;-84
2022/05/10 05:36:44;;;;;;;8.10;7.10;;;13.50;99.90;;;;;;5086602;28;20478;-83
2022/05/10 05:39:14;;;;;;;17.77;14.37;;;;;;;;;;5081326;28;20454;-84
2022/05/10 05:41:40;;;;;;;10.20;6.30;;;13.50;99.90;;;;;;5086699;28;20409;-85
2022/05/10 05:44:07;;;;;;;15.20;7.17;;;;;;;;;;5086197;28;20455;-85
2022/05/10 05:46:34;;;;;;;8.50;6.60;;;13.80;99.90;;;;;;5085938;28;20425;-84
2022/05/10 05:49:01;;;;;;;10.27;6.47;;;13.80;99.90;;;;;;5090093;28;20502;-84
2022/05/10 05:51:28;;;;;;;6.40;5.37;;;;;;;;;;5096233;28;20424;-84
2022/05/10 05:53:55;;;;;;;11.20;7.00;;;14.00;99.90;;;;;;5097410;28;20430;-83
2022/05/10 05:56:23;;;;;;;8.33;5.90;;;14.10;99.90;;;;;;5092585;28;20508;-84
2022/05/10 05:58:49;;;;;;;6.97;5.90;;;14.20;99.90;;;;;;5094240;28;20500;-83
2022/05/10 06:01:17;;;;;;;12.77;6.50;;;14.30;99.90;;;;;;5090375;28;20475;-83
2022/05/10 06:03:44;;;;;;;10.73;6.17;;;14.40;99.90;;;;;;5089810;28;20879;-83
2022/05/10 06:06:11;;;;;;;10.30;6.20;;;14.60;99.90;;;;;;5089374;28;20438;-84
2022/05/10 06:08:38;;;;;;;13.20;6.50;;;;;;;;;;5089065;28;20484;-83
2022/05/10 06:11:05;;;;;;;12.50;6.23;;;14.80;99.90;;;;;;5081268;28;20461;-83
2022/05/10 06:13:35;;;;;;;8.50;6.20;;;14.80;99.90;;;;;;5084765;28;20443;-84
2022/05/10 06:16:05;;;;;;;9.63;6.23;;;14.90;99.90;;;;;;5086364;28;20464;-84
2022/05/10 06:18:32;;;;;;;12.50;6.10;;;;;;;;;;5086126;28;20441;-84
2022/05/10 06:20:59;;;;;;;10.70;6.37;;;15.00;99.90;;;;;;5086500;28;20449;-83
2022/05/10 06:23:26;;;;;;;11.60;7.40;;;15.10;99.90;;;;;;5088442;28;20447;-84
2022/05/10 06:25:52;;;;;;;11.27;6.03;;;15.20;99.90;;;;;;5087785;28;21066;-83
2022/05/10 06:28:19;;;;;;;7.00;5.10;;;;;;;;;;5087533;28;20484;-84
2022/05/10 06:30:48;;;;;;;12.20;6.27;;;15.60;99.90;;;;;;5090115;28;20492;-84
2022/05/10 06:33:15;;;;;;;11.03;6.20;;;15.70;99.90;;;;;;5085341;28;20483;-84
2022/05/10 06:35:43;;;;;;;6.40;5.33;;;16.30;99.90;;;;;;5084892;28;20545;-84
2022/05/10 06:38:24;;;;;;;7.90;5.77;;;;;;;;;;5084811;28;20520;-85
2022/05/10 06:40:51;;;;;;;7.60;5.23;;;;;;;;;;5085735;28;20457;-84
2022/05/10 06:43:18;;;;;;;15.90;7.27;;;16.00;99.90;;;;;;5086443;28;20419;-84
2022/05/10 06:45:45;;;;;;;10.13;5.80;;;;;;;;;;5085536;28;20468;-84
2022/05/10 06:48:14;;;;;;;9.77;6.10;;;16.10;99.90;;;;;;5086515;28;20468;-84
2022/05/10 06:50:41;;;;;;;8.57;5.50;;;;;;;;;;5095427;28;20447;-84
2022/05/10 06:53:08;;;;;;;11.60;5.80;;;16.60;99.90;;;;;;5095791;28;20440;-84
2022/05/10 06:55:39;;;;;;;11.83;6.47;;;16.50;99.90;;;;;;5096664;28;20465;-83
2022/05/10 06:58:06;;;;;;;11.37;5.60;;;16.70;99.90;;;;;;5092388;28;20471;-83
2022/05/10 07:00:35;;;;;;;10.63;6.23;;;16.80;99.90;;;;;;5087931;28;20444;-84
2022/05/10 07:03:05;;;;;;;9.90;5.77;;;16.80;99.90;;;;;;5089464;28;20441;-84
2022/05/10 07:05:34;;;;;;;8.03;5.97;;;16.70;99.90;;;;;;5087762;28;20439;-84
2022/05/10 07:08:01;;;;;;;11.03;6.43;;;;;;;;;;5084364;28;20979;-84
2022/05/10 07:10:28;;;;;;;10.17;5.57;;;16.80;99.90;;;;;;5085675;28;20441;-85
2022/05/10 07:12:54;;;;;;;8.87;5.40;;;16.70;99.90;;;;;;5085355;28;20518;-84
2022/05/10 07:15:23;;;;;;;9.20;5.10;;;16.80;99.90;;;;;;5084519;28;20542;-85
2022/05/10 07:17:50;;;;;;;6.87;4.87;;;16.90;99.90;;;;;;5084928;28;20445;-83
2022/05/10 07:20:18;;;;;;;7.57;5.00;;;;;;;;;;5089441;28;20935;-83
2022/05/10 07:22:46;;;;;;;7.43;4.80;;;17.00;99.90;;;;;;5092801;28;20448;-83
2022/05/10 07:25:14;;;;;;;6.93;4.47;;;17.20;99.90;;;;;;5091368;28;20460;-83
2022/05/10 07:27:41;;;;;;;10.10;6.10;;;17.20;99.90;;;;;;5091043;28;20476;-84
2022/05/10 07:30:09;;;;;;;5.73;5.10;;;18.10;99.90;;;;;;5097231;28;20440;-84
2022/05/10 07:32:36;;;;;;;10.33;5.73;;;;;;;;;;5089530;28;20508;-84
2022/05/10 07:35:04;;;;;;;8.97;5.10;;;17.70;99.90;;;;;;5129327;22;22416;-84
2022/05/10 07:37:33;;;;;;;10.53;5.50;;;;;;;;;;5087594;28;20445;-85
2022/05/10 07:40:01;;;;;;;10.63;6.47;;;17.80;99.90;;;;;;5086075;28;20454;-85
2022/05/10 07:42:28;;;;;;;8.90;6.10;;;18.00;99.90;;;;;;5088030;28;20486;-85
2022/05/10 07:44:55;;;;;;;6.50;5.90;;;;;;;;;;5087077;28;20475;-85
2022/05/10 07:47:22;;;;;;;5.00;4.60;;;;;;;;;;5084679;28;20453;-85
2022/05/10 07:49:48;;;;;;;6.83;5.00;;;18.30;99.90;;;;;;5082533;28;20512;-85
2022/05/10 07:52:15;;;;;;;8.20;4.80;;;18.40;99.90;;;;;;5081776;28;20459;-85
2022/05/10 07:54:42;;;;;;;8.17;4.77;;;;;;;;;;5084001;28;20445;-86
2022/05/10 07:57:10;;;;;;;31.23;18.57;;;18.80;99.90;;;;;;5082793;28;20468;-86
2022/05/10 07:59:37;;;;;;;32.33;19.90;;;18.80;99.90;;;;;;5083721;28;20546;-86
2022/05/10 08:02:04;;;;;;;31.37;17.53;;;18.90;99.90;;;;;;5082505;28;20967;-84
2022/05/10 08:04:32;;;;;;;14.70;11.20;;;19.00;99.90;;;;;;5081927;28;20527;-85
2022/05/10 08:06:59;;;;;;;10.00;6.93;;;19.60;99.90;;;;;;5079490;28;20464;-84
2022/05/10 08:09:25;;;;;;;10.77;7.67;;;19.20;99.90;;;;;;5080314;28;20477;-85
2022/05/10 08:11:52;;;;;;;11.87;8.20;;;19.20;99.90;;;;;;5079572;28;20498;-85
2022/05/10 08:14:20;;;;;;;14.87;8.53;;;19.10;99.90;;;;;;5080254;28;20473;-84
2022/05/10 08:16:47;;;;;;;7.10;5.47;;;19.50;99.90;;;;;;5083856;28;20475;-84
2022/05/10 08:19:14;;;;;;;13.83;9.80;;;19.50;99.90;;;;;;5082046;28;20556;-85
2022/05/10 08:21:41;;;;;;;10.10;7.10;;;19.60;99.90;;;;;;5090158;28;20471;-84
2022/05/10 08:24:08;;;;;;;6.47;4.90;;;19.60;99.90;;;;;;5087760;28;20498;-84
2022/05/10 08:26:35;;;;;;;6.20;4.23;;;;;;;;;;5093184;28;20816;-85
2022/05/10 08:29:02;;;;;;;9.33;5.93;;;19.70;99.90;;;;;;5086299;28;20568;-86
2022/05/10 08:31:30;;;;;;;7.00;4.03;;;19.80;99.90;;;;;;5083845;28;20440;-84
2022/05/10 08:33:56;;;;;;;8.50;4.87;;;19.80;99.90;;;;;;5086873;28;20471;-86
2022/05/10 08:36:23;;;;;;;6.43;5.43;;;19.90;99.90;;;;;;5088095;28;20465;-85
2022/05/10 08:38:50;;;;;;;7.47;5.50;;;;;;;;;;5093195;28;20437;-85
2022/05/10 08:41:23;;;;;;;7.23;4.60;;;20.40;99.90;;;;;;5098567;28;20445;-85
2022/05/10 08:43:55;;;;;;;8.60;6.40;;;20.30;99.90;;;;;;5095919;28;20421;-85
2022/05/10 08:46:27;;;;;;;8.40;4.30;;;20.30;99.90;;;;;;5080381;28;20449;-85
2022/05/10 08:49:11;;;;;;;6.57;4.37;;;20.40;99.90;;;;;;5079341;28;20469;-85
2022/05/10 08:51:38;;;;;;;8.00;5.87;;;;;;;;;;5081866;28;20910;-85
2022/05/10 08:54:05;;;;;;;12.03;5.17;;;20.50;99.90;;;;;;5095664;28;20432;-85
2022/05/10 08:56:40;;;;;;;7.93;5.90;;;20.30;99.90;;;;;;5092029;28;20537;-85
2022/05/10 08:59:18;;;;;;;7.80;5.83;;;20.50;99.90;;;;;;5088126;28;20436;-86
2022/05/10 09:01:54;;;;;;;9.03;4.80;;;20.50;99.90;;;;;;5084193;28;20444;-86
2022/05/10 09:04:45;;;;;;;9.47;5.60;;;20.50;99.90;;;;;;5082035;28;20841;-86
2022/05/10 09:07:22;;;;;;;6.10;3.77;;;20.60;99.90;;;;;;5086909;28;20429;-85
2022/05/10 09:10:00;;;;;;;26.17;5.80;;;20.60;99.90;;;;;;5088434;28;20469;-85
2022/05/10 09:12:27;;;;;;;7.53;4.50;;;;;;;;;;5090940;28;20441;-84
2022/05/10 09:14:57;;;;;;;15.23;6.00;;;21.00;99.90;;;;;;5090806;28;20520;-85
2022/05/10 09:17:29;;;;;;;8.80;5.10;;;21.00;99.90;;;;;;5096804;28;20425;-85
2022/05/10 09:19:57;;;;;;;6.10;3.70;;;21.00;99.90;;;;;;5097267;28;20417;-84
2022/05/10 09:22:34;;;;;;;7.87;4.00;;;20.90;99.90;;;;;;5098044;28;20437;-84
2022/05/10 09:25:02;;;;;;;10.00;4.60;;;21.00;99.90;;;;;;5097656;28;20450;-84
2022/05/10 09:27:33;;;;;;;7.97;4.57;;;21.00;99.90;;;;;;5097391;28;20437;-85
2022/05/10 09:30:00;;;;;;;5.30;4.03;;;21.10;99.90;;;;;;5097571;28;20476;-85
2022/05/10 09:35:19;;;;;;;3.17;2.87;;;21.30;99.90;;;;;;5097265;28;20528;-84
2022/05/10 09:37:52;;;;;;;6.33;3.93;;;21.50;99.90;;;;;;5096674;28;20413;-84
2022/05/10 09:40:26;;;;;;;10.13;5.23;;;21.50;99.90;;;;;;5097537;28;20429;-85
2022/05/10 09:42:55;;;;;;;3.70;3.40;;;21.50;99.90;;;;;;5097788;28;20421;-85
2022/05/10 09:45:24;;;;;;;8.50;3.73;;;21.60;99.90;;;;;;5097640;28;20484;-84
2022/05/10 09:47:57;;;;;;;7.00;4.20;;;21.60;99.90;;;;;;5097979;28;20508;-84
2022/05/10 09:50:31;;;;;;;5.77;3.83;;;21.40;99.90;;;;;;5097597;28;20468;-84
2022/05/10 09:53:14;;;;;;;14.47;5.60;;;22.00;99.90;;;;;;5097853;28;20522;-84
2022/05/10 09:55:52;;;;;;;5.73;4.30;;;21.70;99.90;;;;;;5097829;28;20461;-85
2022/05/10 09:58:21;;;;;;;7.23;5.43;;;21.70;99.90;;;;;;5097718;28;20424;-85
2022/05/10 10:00:52;;;;;;;5.93;4.07;;;21.90;99.90;;;;;;5095957;28;20441;-85
2022/05/10 10:03:27;;;;;;;4.87;3.83;;;21.90;99.90;;;;;;5095488;28;20475;-86
2022/05/10 10:06:12;;;;;;;4.13;3.40;;;21.90;99.90;;;;;;5094824;28;20459;-85
2022/05/10 10:08:41;;;;;;;6.73;4.00;;;21.90;99.90;;;;;;5089663;28;20441;-86
2022/05/10 10:11:26;;;;;;;6.27;3.50;;;22.10;99.90;;;;;;5090933;28;20831;-85
2022/05/10 10:13:54;;;;;;;5.27;4.83;;;22.10;99.90;;;;;;5093381;28;20433;-86
2022/05/10 10:16:25;;;;;;;4.83;3.20;;;22.20;99.90;;;;;;5091666;28;20445;-85
2022/05/10 10:18:54;;;;;;;7.33;4.47;;;22.40;99.90;;;;;;5090181;28;20440;-85
2022/05/10 10:21:31;;;;;;;7.27;5.50;;;22.20;99.90;;;;;;5083839;28;20445;-85
2022/05/10 10:23:59;;;;;;;4.40;4.00;;;22.50;99.90;;;;;;5082858;28;20498;-85
2022/05/10 10:26:36;;;;;;;4.90;3.27;;;22.40;99.90;;;;;;5082468;28;20468;-85
2022/05/10 10:29:14;;;;;;;7.27;4.30;;;22.70;99.90;;;;;;5082044;28;20471;-85
2022/05/10 10:31:43;;;;;;;6.40;3.77;;;22.50;99.90;;;;;;5088236;28;20466;-85
2022/05/10 10:34:14;;;;;;;6.63;3.30;;;22.60;99.90;;;;;;5089201;28;20448;-85
2022/05/10 10:36:50;;;;;;;5.13;3.60;;;22.60;99.90;;;;;;5086417;28;20472;-85
2022/05/10 10:39:25;;;;;;;4.60;3.30;;;23.00;99.90;;;;;;5085788;28;20570;-85
2022/05/10 10:41:57;;;;;;;8.10;5.30;;;22.80;99.90;;;;;;5086347;28;20439;-85
2022/05/10 10:44:26;;;;;;;7.07;5.00;;;22.90;99.90;;;;;;5086012;28;20436;-85
2022/05/10 10:47:05;;;;;;;19.83;16.57;;;22.90;99.90;;;;;;5084557;28;20461;-86
2022/05/10 10:49:37;;;;;;;9.93;8.67;;;23.00;99.90;;;;;;5086710;28;20465;-85
2022/05/10 10:52:05;;;;;;;5.40;3.53;;;23.10;99.90;;;;;;5096763;28;20425;-85
2022/05/10 10:54:32;;;;;;;4.10;3.47;;;23.20;99.90;;;;;;5087298;28;20445;-86
2022/05/10 10:57:27;;;;;;;4.93;3.07;;;23.30;99.90;;;;;;5088206;28;21064;-86
2022/05/10 11:00:06;;;;;;;8.40;3.93;;;23.20;99.90;;;;;;5089124;28;20441;-85
2022/05/10 11:02:56;;;;;;;6.30;3.87;;;23.30;99.90;;;;;;5090099;28;20456;-85
2022/05/10 11:06:05;;;;;;;6.80;3.70;;;23.30;99.90;;;;;;5098477;28;20445;-85
2022/05/10 11:08:45;;;;;;;3.77;2.93;;;22.50;99.90;;;;;;5093364;28;20451;-85
2022/05/10 11:11:25;;;;;;;7.73;4.70;;;23.30;99.90;;;;;;5100851;28;20541;-85
2022/05/10 11:14:02;;;;;;;6.53;4.10;;;23.30;99.90;;;;;;5100401;28;20421;-85
2022/05/10 11:16:42;;;;;;;3.53;3.23;;;23.20;99.60;;;;;;5094667;28;20452;-84
2022/05/10 11:19:39;;;;;;;4.17;3.70;;;23.30;99.90;;;;;;5097277;28;20485;-84
2022/05/10 11:22:23;;;;;;;10.20;6.30;;;23.40;99.90;;;;;;5089865;28;20445;-85
2022/05/10 11:24:59;;;;;;;10.40;7.77;;;23.30;99.90;;;;;;5098241;28;20481;-84
2022/05/10 11:27:40;;;;;;;4.27;3.90;;;23.60;99.90;;;;;;5098153;28;20436;-85
2022/05/10 11:30:14;;;;;;;5.50;4.87;;;23.60;98.80;;;;;;5098245;28;20461;-85
2022/05/10 11:33:01;;;;;;;5.87;4.90;;;23.70;99.90;;;;;;5098623;28;20426;-85
2022/05/10 11:35:48;;;;;;;9.93;8.23;;;23.90;99.90;;;;;;5096554;28;20476;-86
2022/05/10 11:38:26;;;;;;;10.17;7.47;;;23.80;99.50;;;;;;5087408;28;20459;-86
2022/05/10 11:41:06;;;;;;;8.07;5.30;;;23.40;99.90;;;;;;5087548;28;20502;-85
2022/05/10 11:44:06;;;;;;;4.07;3.67;;;23.90;99.20;;;;;;5090504;28;20429;-86
2022/05/10 11:47:00;;;;;;;8.17;6.83;;;23.90;98.70;;;;;;5087027;28;20971;-85
2022/05/10 11:49:51;;;;;;;5.30;4.80;;;23.80;98.70;;;;;;5083854;28;20469;-86
2022/05/10 11:52:44;;;;;;;10.30;4.67;;;23.80;97.30;;;;;;5084474;28;20840;-85
2022/05/10 11:55:20;;;;;;;4.80;3.73;;;24.10;99.90;;;;;;5086307;28;20456;-85
2022/05/10 11:57:51;;;;;;;5.90;4.40;;;23.90;98.00;;;;;;5096112;28;20460;-83
2022/05/10 12:00:51;;;;;;;6.50;5.40;;;24.00;98.50;;;;;;5096021;28;20441;-84
2022/05/10 12:03:50;;;;;;;6.97;6.27;;;23.50;99.90;;;;;;5093775;28;20567;-85
2022/05/10 12:06:46;;;;;;;10.13;6.27;;;23.70;99.90;;;;;;5098247;28;20499;-84
2022/05/10 12:09:16;;;;;;;9.60;6.40;;;23.90;99.10;;;;;;5093208;28;20860;-85
2022/05/10 12:11:44;;;;;;;4.87;4.47;;;23.90;98.40;;;;;;5087597;28;20459;-85
2022/05/10 12:23:03;;;;;;;4.90;4.17;;;24.10;99.90;;;;;;5085279;28;20413;-85
2022/05/10 12:25:51;;;;;;;4.90;4.40;;;24.30;98.40;;;;;;5088482;28;20467;-87
2022/05/10 12:28:43;;;;;;;4.73;4.33;;;24.50;97.00;;;;;;5085212;28;20459;-84
2022/05/10 12:31:26;;;;;;;5.73;4.00;;;24.60;97.50;;;;;;5084773;28;20476;-85
2022/05/10 12:34:01;;;;;;;3.97;3.67;;;24.20;99.90;;;;;;5093987;28;20410;-84
2022/05/10 12:36:33;;;;;;;3.60;3.30;;;24.50;99.90;;;;;;5080971;28;20472;-85
2022/05/10 12:39:21;;;;;;;6.43;4.03;;;24.80;97.40;;;;;;5082818;28;20743;-85
2022/05/10 12:42:00;;;;;;;5.70;5.10;;;24.80;93.80;;;;;;5085967;28;20432;-85
2022/05/10 12:45:02;;;;;;;4.90;4.50;;;25.10;99.90;;;;;;5085184;28;20567;-85
2022/05/10 12:47:59;;;;;;;4.60;4.30;;;24.80;92.30;;;;;;5086937;28;20433;-85
2022/05/10 12:50:39;;;;;;;6.00;5.17;;;24.80;95.10;;;;;;5088476;28;20488;-85
2022/05/10 12:53:18;;;;;;;6.10;5.13;;;24.30;99.90;;;;;;5092861;28;20462;-85
2022/05/10 12:55:45;;;;;;;5.43;4.67;;;;;;;;;;5090786;28;20487;-85
2022/05/10 12:58:17;;;;;;;9.60;5.30;;;24.80;93.40;;;;;;5089315;28;20861;-85
2022/05/10 13:00:48;;;;;;;10.50;8.53;;;24.90;96.40;;;;;;5089239;28;20421;-85
2022/05/10 13:03:22;;;;;;;8.17;5.13;;;24.60;92.50;;;;;;5089274;28;20433;-85
2022/05/10 13:06:10;;;;;;;6.93;6.33;;;24.50;89.20;;;;;;5088398;28;20496;-84
2022/05/10 13:09:01;;;;;;;4.20;3.90;;;24.50;99.90;;;;;;5085823;28;20456;-85
2022/05/10 13:11:32;;;;;;;6.10;5.00;;;24.90;90.80;;;;;;5085264;28;20525;-85
2022/05/10 13:14:01;;;;;;;4.13;3.73;;;25.50;99.90;;;;;;5085506;28;20432;-85
2022/05/10 13:16:28;;;;;;;4.43;4.03;;;;;;;;;;5085140;28;20491;-86
2022/05/10 13:18:57;;;;;;;6.40;4.40;;;25.20;92.20;;;;;;5084249;28;20437;-85
2022/05/10 13:21:26;;;;;;;4.93;4.53;;;25.20;91.90;;;;;;5085256;28;20459;-84
2022/05/10 13:23:55;;;;;;;5.67;4.90;;;25.50;99.90;;;;;;5084956;28;20433;-85
2022/05/10 13:26:23;;;;;;;4.70;4.20;;;25.20;92.80;;;;;;5085756;28;20461;-86
2022/05/10 13:28:51;;;;;;;6.17;4.33;;;25.30;94.20;;;;;;5083449;28;20527;-85
2022/05/10 13:31:22;;;;;;;6.63;6.00;;;25.20;94.10;;;;;;5084681;28;20663;-85
2022/05/10 13:33:49;;;;;;;7.23;4.50;;;25.20;92.60;;;;;;5084693;28;20429;-85